createdAt,value
2022-10-01T00:05:01.701Z,71.19
2022-10-01T00:10:07.207Z,70.94
2022-10-01T00:15:13.564Z,70.87
2022-10-01T00:20:17.892Z,71.44
2022-10-01T00:25:22.597Z,71.32
2022-10-01T00:30:28.081Z,71.03
2022-10-01T00:35:32.103Z,70.96
2022-10-01T00:40:36.385Z,70.90
2022-10-01T00:45:42.596Z,71.56
2022-10-01T00:50:49.909Z,71.56
2022-10-01T00:55:56.984Z,71.70
2022-10-01T01:01:02.489Z,71.29
2022-10-01T01:06:10.666Z,71.33
2022-10-01T01:11:24.376Z,71.11
2022-10-01T01:16:36.297Z,71.15
2022-10-01T01:21:45.109Z,71.39
2022-10-01T01:27:17.152Z,71.60
2022-10-01T01:32:28.317Z,72.37
2022-10-01T01:37:37.225Z,72.07
2022-10-01T01:42:44.755Z,72.49
2022-10-01T01:47:51.625Z,72.53
2022-10-01T01:52:55.758Z,72.11
2022-10-01T01:58:00.605Z,72.50
2022-10-01T02:03:06.847Z,72.77
2022-10-01T02:08:28.560Z,72.49
2022-10-01T02:13:41.597Z,72.15
2022-10-01T02:19:14.922Z,72.17
2022-10-01T02:24:34.161Z,71.88
2022-10-01T02:29:42.285Z,71.98
2022-10-01T02:34:49.481Z,71.77
2022-10-01T02:39:57.157Z,72.12
2022-10-01T02:45:02.496Z,71.93
2022-10-01T02:50:10.704Z,71.87
2022-10-01T02:55:17.051Z,71.82
2022-10-01T03:00:22.532Z,72.18
2022-10-01T03:05:28.981Z,72.53
2022-10-01T03:10:32.285Z,72.41
2022-10-01T03:15:36.396Z,72.73
2022-10-01T03:20:41.890Z,72.27
2022-10-01T03:25:46.066Z,72.38
2022-10-01T03:30:50.342Z,72.41
2022-10-01T03:35:55.918Z,72.70
2022-10-01T03:41:00.172Z,72.29
2022-10-01T03:46:04.576Z,71.96
2022-10-01T03:51:10.244Z,72.46
2022-10-01T03:56:14.305Z,72.15
2022-10-01T04:01:18.579Z,71.85
2022-10-01T04:06:24.352Z,72.05
2022-10-01T04:11:28.054Z,72.35
2022-10-01T04:16:32.750Z,72.41
2022-10-01T04:21:39.934Z,72.10
2022-10-01T04:26:43.994Z,72.53
2022-10-01T04:31:48.312Z,72.07
2022-10-01T04:36:53.845Z,72.34
2022-10-01T04:41:57.929Z,72.27
2022-10-01T04:47:02.041Z,72.04
2022-10-01T04:52:07.830Z,71.94
2022-10-01T04:57:13.045Z,71.96
2022-10-01T05:02:18.247Z,72.24
2022-10-01T05:07:23.802Z,72.40
2022-10-01T05:12:27.168Z,71.99
2022-10-01T05:17:33.823Z,71.93
2022-10-01T05:22:38.793Z,71.93
2022-10-01T05:27:43.118Z,72.24
2022-10-01T05:32:56.167Z,72.36
2022-10-01T05:38:03.502Z,72.28
2022-10-01T05:43:06.773Z,72.14
2022-10-01T05:48:11.760Z,72.55
2022-10-01T05:53:16.705Z,72.39
2022-10-01T05:58:20.786Z,72.34
2022-10-01T06:03:24.301Z,72.53
2022-10-01T06:08:29.806Z,72.50
2022-10-01T06:13:33.351Z,72.05
2022-10-01T06:18:37.399Z,71.95
2022-10-01T06:23:44.393Z,71.75
2022-10-01T06:28:51.779Z,71.75
2022-10-01T06:33:55.115Z,72.27
2022-10-01T06:39:00.918Z,71.98
2022-10-01T06:44:04.330Z,71.53
2022-10-01T06:49:08.519Z,71.18
2022-10-01T06:54:14.660Z,71.37
2022-10-01T06:59:18.813Z,71.35
2022-10-01T07:04:22.642Z,71.93
2022-10-01T07:09:27.773Z,71.38
2022-10-01T07:14:31.098Z,71.98
2022-10-01T07:19:36.395Z,71.29
2022-10-01T07:24:41.099Z,71.31
2022-10-01T07:29:45.876Z,71.04
2022-10-01T07:34:49.239Z,70.43
2022-10-01T07:39:54.732Z,70.24
2022-10-01T07:44:58.353Z,71.10
2022-10-01T07:50:02.360Z,70.91
2022-10-01T07:55:11.203Z,71.12
2022-10-01T08:00:15.456Z,72.03
2022-10-01T08:05:20.266Z,70.23
2022-10-01T08:10:25.057Z,65.86
2022-10-01T08:15:28.572Z,62.61
2022-10-01T08:20:32.656Z,60.81
2022-10-01T08:25:37.993Z,58.93
2022-10-01T08:30:43.284Z,57.46
2022-10-01T08:35:46.775Z,57.31
2022-10-01T08:40:52.638Z,55.77
2022-10-01T08:45:59.957Z,55.28
2022-10-01T08:51:07.278Z,55.59
2022-10-01T08:56:20.910Z,55.61
2022-10-01T09:01:24.358Z,55.80
2022-10-01T09:06:29.479Z,56.11
2022-10-01T09:11:45.828Z,56.60
2022-10-01T09:16:57.784Z,57.00
2022-10-01T09:22:05.097Z,56.83
2022-10-01T09:27:16.249Z,56.34
2022-10-01T09:32:23.248Z,55.77
2022-10-01T09:37:33.354Z,55.72
2022-10-01T09:42:38.099Z,56.00
2022-10-01T09:47:43.881Z,55.84
2022-10-01T09:52:51.883Z,56.35
2022-10-01T09:58:02.923Z,55.83
2022-10-01T10:03:06.710Z,55.67
2022-10-01T10:08:15.457Z,55.74
2022-10-01T10:13:26.662Z,55.27
2022-10-01T10:18:34.729Z,55.02
2022-10-01T10:23:48.391Z,54.47
2022-10-01T10:28:53.209Z,54.58
2022-10-01T10:34:06.998Z,54.69
2022-10-01T10:39:21.506Z,55.43
2022-10-01T10:44:30.402Z,56.60
2022-10-01T10:49:37.733Z,57.88
2022-10-01T10:54:47.984Z,57.68
2022-10-01T11:00:00.963Z,57.15
2022-10-01T11:05:16.959Z,56.66
2022-10-01T11:10:30.775Z,56.18
2022-10-01T11:15:49.671Z,58.09
2022-10-01T11:21:09.126Z,58.62
2022-10-01T11:26:22.456Z,57.96
2022-10-01T11:31:38.163Z,57.88
2022-10-01T11:36:49.197Z,57.21
2022-10-01T11:41:59.818Z,59.02
2022-10-01T11:47:09.792Z,58.19
2022-10-01T11:52:22.305Z,57.30
2022-10-01T11:57:51.062Z,57.30
2022-10-01T12:03:01.977Z,56.94
2022-10-01T12:08:14.356Z,55.81
2022-10-01T12:13:29.218Z,54.83
2022-10-01T12:18:46.597Z,54.53
2022-10-01T12:23:55.878Z,53.97
2022-10-01T12:29:09.070Z,53.73
2022-10-01T12:34:23.821Z,53.40
2022-10-01T12:39:45.344Z,53.56
2022-10-01T12:45:03.437Z,54.12
2022-10-01T12:50:23.478Z,53.83
2022-10-01T12:55:47.271Z,53.58
2022-10-01T13:01:06.004Z,55.09
2022-10-01T13:06:25.759Z,56.37
2022-10-01T13:11:44.985Z,58.36
2022-10-01T13:16:57.796Z,59.83
2022-10-01T13:22:15.020Z,61.92
2022-10-01T13:27:24.552Z,63.06
2022-10-01T13:32:32.344Z,64.26
2022-10-01T13:37:40.810Z,64.92
2022-10-01T13:42:47.134Z,65.45
2022-10-01T13:47:51.928Z,65.84
2022-10-01T13:53:07.581Z,66.66
2022-10-01T13:58:25.077Z,67.91
2022-10-01T14:03:46.365Z,68.17
2022-10-01T14:08:55.860Z,68.79
2022-10-01T14:14:22.836Z,70.18
2022-10-01T14:19:29.855Z,69.50
2022-10-01T14:24:50.447Z,70.53
2022-10-01T14:30:06.025Z,71.75
2022-10-01T14:35:30.498Z,71.30
2022-10-01T14:40:41.094Z,70.99
2022-10-01T14:45:53.823Z,71.49
2022-10-01T14:51:00.613Z,71.53
2022-10-01T14:56:09.052Z,71.17
2022-10-01T15:01:19.848Z,71.54
2022-10-01T15:06:28.925Z,71.10
2022-10-01T15:11:38.939Z,70.93
2022-10-01T15:16:45.681Z,71.96
2022-10-01T15:21:52.702Z,72.04
2022-10-01T15:26:59.599Z,72.88
2022-10-01T15:32:05.469Z,72.55
2022-10-01T15:37:16.199Z,72.43
2022-10-01T15:42:30.740Z,74.12
2022-10-01T15:47:36.365Z,73.39
2022-10-01T15:52:52.163Z,73.65
2022-10-01T15:58:04.316Z,73.65
2022-10-01T16:03:07.842Z,74.12
2022-10-01T16:08:22.640Z,74.72
2022-10-01T16:13:38.800Z,74.77
2022-10-01T16:18:43.870Z,74.25
2022-10-01T16:23:49.644Z,74.76
2022-10-01T16:28:58.947Z,74.83
2022-10-01T16:34:03.001Z,74.59
2022-10-01T16:39:08.807Z,74.70
2022-10-01T16:44:15.016Z,74.57
2022-10-01T16:49:19.227Z,74.74
2022-10-01T16:54:32.359Z,75.03
2022-10-01T16:59:37.976Z,74.56
2022-10-01T17:04:41.821Z,74.85
2022-10-01T17:09:46.044Z,74.77
2022-10-01T17:14:51.357Z,74.81
2022-10-01T17:19:56.428Z,74.81
2022-10-01T17:24:59.906Z,74.96
2022-10-01T17:30:06.213Z,75.31
2022-10-01T17:35:13.828Z,75.62
2022-10-01T17:40:18.723Z,75.66
2022-10-01T17:45:24.974Z,76.06
2022-10-01T17:50:32.278Z,76.62
2022-10-01T17:55:37.263Z,77.04
2022-10-01T18:00:43.945Z,76.89
2022-10-01T18:05:48.557Z,76.85
2022-10-01T18:10:51.848Z,76.82
2022-10-01T18:16:03.035Z,77.50
2022-10-01T18:21:09.353Z,77.45
2022-10-01T18:26:15.258Z,77.03
2022-10-01T18:31:24.853Z,77.29
2022-10-01T18:36:44.284Z,77.27
2022-10-01T18:41:49.484Z,76.56
2022-10-01T18:47:19.150Z,76.79
2022-10-01T18:52:35.874Z,77.68
2022-10-01T18:57:59.239Z,76.87
2022-10-01T19:03:37.484Z,78.63
2022-10-01T19:09:06.690Z,77.72
2022-10-01T19:14:34.763Z,78.24
2022-10-01T19:19:53.651Z,79.34
2022-10-01T19:25:08.728Z,79.99
2022-10-01T19:30:15.437Z,79.84
2022-10-01T19:35:23.414Z,80.63
2022-10-01T19:40:33.648Z,81.27
2022-10-01T19:45:46.850Z,81.91
2022-10-01T19:50:58.866Z,81.86
2022-10-01T19:56:04.345Z,80.62
2022-10-01T20:01:11.877Z,80.59
2022-10-01T20:06:23.563Z,80.10
2022-10-01T20:11:31.445Z,80.10
2022-10-01T20:16:41.521Z,79.93
2022-10-01T20:21:59.509Z,80.02
2022-10-01T20:27:12.410Z,79.63
2022-10-01T20:32:21.895Z,79.36
2022-10-01T20:37:44.296Z,79.52
2022-10-01T20:42:51.489Z,79.56
2022-10-01T20:48:00.960Z,79.51
2022-10-01T20:53:30.991Z,79.56
2022-10-01T20:58:44.308Z,79.21
2022-10-01T21:03:53.063Z,79.20
2022-10-01T21:09:02.893Z,79.13
2022-10-01T21:14:13.949Z,78.74
2022-10-01T21:19:29.190Z,79.33
2022-10-01T21:24:57.618Z,78.49
2022-10-01T21:30:13.131Z,78.87
2022-10-01T21:35:27.255Z,78.81
2022-10-01T21:40:44.955Z,79.37
2022-10-01T21:45:57.758Z,78.65
2022-10-01T21:51:08.351Z,78.50
2022-10-01T21:56:38.070Z,78.03
2022-10-01T22:02:05.967Z,78.28
2022-10-01T22:07:18.977Z,77.60
2022-10-01T22:12:28.100Z,77.23
2022-10-01T22:17:35.564Z,77.31
2022-10-01T22:22:40.257Z,77.30
2022-10-01T22:27:47.697Z,76.78
2022-10-01T22:32:57.393Z,76.83
2022-10-01T22:38:09.524Z,75.97
2022-10-01T22:43:15.405Z,75.80
2022-10-01T22:48:36.283Z,75.06
2022-10-01T22:53:54.414Z,75.53
2022-10-01T22:59:10.172Z,75.41
2022-10-01T23:04:33.143Z,74.81
2022-10-01T23:09:42.054Z,75.42
2022-10-01T23:14:59.603Z,75.43
2022-10-01T23:20:18.459Z,75.38
2022-10-01T23:25:35.829Z,75.71
2022-10-01T23:30:53.652Z,75.59
2022-10-01T23:36:06.923Z,76.09
2022-10-01T23:41:17.177Z,76.01
2022-10-01T23:46:29.548Z,76.37
2022-10-01T23:51:39.948Z,76.28
2022-10-01T23:56:52.922Z,76.00
